Time;durP1;ratioP1;P1;durP2;ratioP2;P2;SDS_P1;SDS_P2;PMS_P1;PMS_P2;Temp;Humidity;BMP_temperature;BMP_pressure;BME280_temperature;BME280_humidity;BME280_pressure;Samples;Min_cycle;Max_cycle;Signal;HPM_P1;HPM_P2
2024/02/11 00:01:18;;;;;;;27.63;18.02;;;;;;;-145.63;49.65;38783.72;5050415;28;20087;-66
2024/02/11 00:03:43;;;;;;;28.02;17.63;;;;;;;-145.63;49.78;38805.22;5052862;28;20086;-66
2024/02/11 00:06:11;;;;;;;26.38;16.88;;;;;;;-145.63;50.41;38754.38;5053107;28;20029;-66
2024/02/11 00:08:39;;;;;;;25.95;17.38;;;;;;;-145.63;50.34;38793.50;5049925;28;20066;-66
2024/02/11 00:11:06;;;;;;;27.50;17.20;;;;;;;-145.63;50.32;38815.00;5036134;28;20029;-67
2024/02/11 00:13:32;;;;;;;28.80;17.85;;;;;;;-145.63;50.34;38789.59;5017260;28;20038;-66
2024/02/11 00:16:03;;;;;;;25.52;16.27;;;;;;;-145.63;50.36;38773.94;5033602;28;20068;-66
2024/02/11 00:18:29;;;;;;;;;;;;;;;-145.63;50.32;38805.22;5037637;28;20040;-65
2024/02/11 00:20:55;;;;;;;29.35;18.27;;;;;;;-145.63;50.11;38816.97;5037443;28;19972;-66
2024/02/11 00:23:22;;;;;;;26.90;18.05;;;;;;;-145.63;49.78;38805.22;5039258;28;20398;-64
2024/02/11 00:25:54;;;;;;;29.70;18.80;;;;;;;-145.63;50.06;38813.03;5057379;28;20031;-64
2024/02/11 00:28:21;;;;;;;29.23;19.15;;;;;;;-145.63;49.84;38781.75;5037807;28;20029;-66
2024/02/11 00:30:50;;;;;;;27.65;19.23;;;;;;;-145.63;49.80;38785.66;5022228;28;20049;-65
2024/02/11 00:33:19;;;;;;;31.38;18.42;;;;;;;-145.63;49.22;38805.22;5026544;28;20038;-66
2024/02/11 00:35:45;;;;;;;26.42;18.00;;;;;;;-145.63;49.69;38822.81;5042690;28;20047;-66
2024/02/11 00:38:13;;;;;;;32.30;19.13;;;;;;;-145.63;49.33;38809.13;5056091;28;20116;-66
2024/02/11 00:40:38;;;;;;;35.10;21.33;;;;;;;-145.63;49.35;38824.78;5037310;28;20041;-65
2024/02/11 00:43:07;;;;;;;30.55;19.42;;;;;;;-145.63;49.31;38838.47;5018148;28;20026;-65
2024/02/11 00:45:35;;;;;;;31.45;19.75;;;;;;;-145.63;49.53;38815.00;5028568;28;20038;-65
2024/02/11 00:48:05;;;;;;;29.92;19.45;;;;;;;-145.63;49.69;38795.44;5044576;28;20029;-66
2024/02/11 00:50:31;;;;;;;31.15;18.88;;;;;;;-145.63;49.36;38781.75;5042174;28;20053;-65
2024/02/11 00:52:58;;;;;;;37.33;20.10;;;;;;;-145.63;49.50;38805.22;5016693;28;20038;-66
2024/02/11 00:55:24;;;;;;;36.50;19.80;;;;;;;-145.63;49.53;38809.13;5016438;28;20036;-65
2024/02/11 00:57:50;;;;;;;28.50;18.25;;;;;;;-145.63;49.70;38787.63;5031208;28;20018;-66
2024/02/11 01:00:17;;;;;;;28.75;17.90;;;;;;;-145.63;49.68;38797.41;5045785;28;20366;-66
2024/02/11 01:02:43;;;;;;;27.30;17.35;;;;;;;-145.63;49.40;38801.31;5051306;28;20029;-66
2024/02/11 01:05:11;;;;;;;28.13;18.02;;;;;;;-145.63;50.02;38711.38;5035602;28;20048;-66
2024/02/11 01:07:38;;;;;;;28.17;17.10;;;;;;;-145.63;50.32;38781.75;5016415;28;20105;-66
2024/02/11 01:10:12;;;;;;;26.70;18.45;;;;;;;-145.63;50.27;38805.22;5048816;28;20037;-66
2024/02/11 01:12:44;;;;;;;29.17;17.83;;;;;;;-145.63;49.93;38770.03;5043074;28;20068;-65
2024/02/11 01:15:12;;;;;;;30.30;17.15;;;;;;;-145.63;50.05;38809.13;5026846;28;20034;-67
2024/02/11 01:17:42;;;;;;;31.90;18.27;;;;;;;-145.63;50.13;38832.59;5022093;28;20041;-65
2024/02/11 01:20:09;;;;;;;28.23;16.83;;;;;;;-145.63;49.83;38803.28;5034717;28;20045;-65
2024/02/11 01:22:38;;;;;;;30.42;17.75;;;;;;;-145.63;49.91;38756.34;5035306;28;20099;-65
2024/02/11 01:25:04;;;;;;;26.75;16.92;;;;;;;-145.63;49.80;38793.50;5051071;28;20029;-65
2024/02/11 01:27:30;;;;;;;30.65;17.25;;;;;;;-145.63;49.86;38791.53;5043512;28;20053;-65
2024/02/11 01:29:56;;;;;;;27.73;17.63;;;;;;;-145.63;49.54;38797.41;5028240;28;20069;-65
2024/02/11 01:32:23;;;;;;;30.10;16.98;;;;;;;-145.63;49.64;38797.41;5017285;28;20129;-65
2024/02/11 01:34:50;;;;;;;28.98;17.10;;;;;;;-145.63;49.76;38775.91;5035214;28;20100;-65
2024/02/11 01:37:16;;;;;;;26.25;17.38;;;;;;;-145.63;49.88;38805.22;5017332;28;20485;-66
2024/02/11 01:39:42;;;;;;;22.83;16.25;;;;;;;-145.63;49.58;38809.13;5028120;28;20105;-65
2024/02/11 01:42:07;;;;;;;24.45;15.45;;;;;;;-145.63;49.86;38773.94;5026608;28;20044;-64
2024/02/11 01:44:33;;;;;;;28.42;16.83;;;;;;;-145.63;49.95;38777.84;5021857;28;20032;-64
2024/02/11 01:47:02;;;;;;;24.15;15.93;;;;;;;-145.63;50.17;38777.84;5054701;28;20037;-65
2024/02/11 01:49:28;;;;;;;23.45;16.42;;;;;;;-145.63;49.76;38762.22;5035805;28;20116;-65
2024/02/11 01:51:55;;;;;;;27.17;17.08;;;;;;;-145.63;49.51;38789.59;5034757;28;20490;-67
2024/02/11 01:54:21;;;;;;;30.98;17.63;;;;;;;-145.63;50.52;38787.63;5044471;28;20427;-66
2024/02/11 01:56:50;;;;;;;24.95;16.17;;;;;;;-145.63;50.26;38777.84;5049858;28;20039;-65
2024/02/11 01:59:17;;;;;;;26.95;16.15;;;;;;;-145.63;50.19;38801.31;5033726;28;20029;-66
2024/02/11 02:01:43;;;;;;;23.65;16.38;;;;;;;-145.63;50.49;38771.97;5015320;28;20034;-65
2024/02/11 02:04:10;;;;;;;26.27;17.65;;;;;;;-145.63;49.87;38750.47;5014949;28;20029;-65
2024/02/11 02:06:36;;;;;;;29.40;16.45;;;;;;;-145.63;49.74;38779.81;5027083;28;20025;-64
2024/02/11 02:09:03;;;;;;;24.77;16.67;;;;;;;-145.63;50.11;38766.13;5027353;28;20045;-65
2024/02/11 02:11:29;;;;;;;27.83;17.20;;;;;;;-145.63;50.20;38779.81;5017136;28;20041;-66
2024/02/11 02:13:56;;;;;;;29.23;15.75;;;;;;;-145.63;50.57;38750.47;5033261;28;20079;-66
2024/02/11 02:16:24;;;;;;;26.95;17.10;;;;;;;-145.63;50.16;38807.19;5013290;28;20105;-65
2024/02/11 02:18:52;;;;;;;24.73;15.43;;;;;;;-145.63;49.82;38766.13;5031159;28;20048;-65
2024/02/11 02:21:19;;;;;;;23.52;15.55;;;;;;;-145.63;50.21;38768.06;5043317;28;20083;-65
2024/02/11 02:23:47;;;;;;;25.42;16.20;;;;;;;-145.63;50.13;38727.00;5049462;28;20021;-64
2024/02/11 02:26:14;;;;;;;22.55;14.77;;;;;;;-145.63;50.38;38766.13;5033939;28;20037;-65
2024/02/11 02:28:40;;;;;;;24.50;15.45;;;;;;;-145.63;49.84;38766.13;5014326;28;20037;-63
2024/02/11 02:31:07;;;;;;;26.98;15.75;;;;;;;-145.63;50.06;38785.66;5029407;28;20049;-63
2024/02/11 02:33:36;;;;;;;20.77;14.52;;;;;;;-145.63;50.12;38762.22;5022839;28;20050;-66
2024/02/11 02:36:03;;;;;;;22.70;15.60;;;;;;;-145.63;50.29;38793.50;5021970;28;20041;-67
2024/02/11 02:38:29;;;;;;;25.23;16.85;;;;;;;-145.63;50.35;38754.38;5031821;28;20029;-67
2024/02/11 02:40:55;;;;;;;26.90;16.10;;;;;;;-145.63;50.01;38801.31;5014833;28;20080;-65
2024/02/11 02:43:20;;;;;;;24.35;16.35;;;;;;;-145.63;50.07;38805.22;5031292;28;20036;-67
2024/02/11 02:45:47;;;;;;;23.77;16.70;;;;;;;-145.63;49.92;38777.84;5021628;28;20061;-67
2024/02/11 02:48:14;;;;;;;24.13;15.45;;;;;;;-145.63;49.82;38803.28;5023388;28;20041;-67
2024/02/11 02:50:43;;;;;;;24.08;16.17;;;;;;;-145.63;49.43;38805.22;5038587;28;20083;-67
2024/02/11 02:53:11;;;;;;;22.75;15.18;;;;;;;-145.63;49.61;38781.75;5053670;28;20269;-66
2024/02/11 02:55:38;;;;;;;23.85;14.80;;;;;;;-145.63;49.61;38799.34;5054070;28;20063;-67
2024/02/11 02:58:08;;;;;;;20.52;14.35;;;;;;;-145.63;50.04;38797.41;5023523;28;20022;-66
2024/02/11 03:00:34;;;;;;;22.33;15.63;;;;;;;-145.63;49.68;38789.59;5036770;28;20036;-65
2024/02/11 03:03:06;;;;;;;23.70;15.45;;;;;;;-145.63;49.69;38813.03;5047349;28;20459;-65
2024/02/11 03:05:34;;;;;;;22.58;14.80;;;;;;;-145.63;49.84;38771.97;5041652;28;20044;-66
2024/02/11 03:08:00;;;;;;;22.63;15.10;;;;;;;-145.63;49.69;38785.66;5026278;28;20037;-66
2024/02/11 03:10:26;;;;;;;26.10;15.63;;;;;;;-145.63;49.59;38805.22;5046254;28;20030;-65
2024/02/11 03:12:51;;;;;;;25.58;15.77;;;;;;;-145.63;48.93;38793.50;5024650;28;20034;-66
2024/02/11 03:15:17;;;;;;;24.88;16.20;;;;;;;-145.63;49.15;38816.97;5023168;28;20029;-67
2024/02/11 03:17:44;;;;;;;23.75;15.98;;;;;;;-145.63;49.39;38811.09;5034929;28;20032;-65
2024/02/11 03:20:15;;;;;;;23.08;15.23;;;;;;;-145.63;49.20;38781.75;5036956;28;20117;-67
2024/02/11 03:22:44;;;;;;;;;;;;;;;-145.63;49.67;38781.75;5015296;28;20037;-67
2024/02/11 03:25:09;;;;;;;24.08;14.95;;;;;;;-145.63;49.73;38791.53;5045564;28;19912;-65
2024/02/11 03:27:37;;;;;;;22.67;15.20;;;;;;;-145.63;49.64;38775.91;5042674;28;20523;-67
2024/02/11 03:30:05;;;;;;;24.90;14.32;;;;;;;-145.63;49.39;38795.44;5026902;28;20061;-66
2024/02/11 03:32:31;;;;;;;19.27;13.70;;;;;;;-145.63;49.80;38750.47;5014662;28;20038;-66
2024/02/11 03:34:57;;;;;;;21.73;14.38;;;;;;;-145.63;49.86;38789.59;5033713;28;20383;-67
2024/02/11 03:37:22;;;;;;;23.98;14.40;;;;;;;-145.63;49.95;38793.50;5016412;28;20030;-67
2024/02/11 03:39:51;;;;;;;22.55;15.23;;;;;;;-145.63;49.49;38766.13;5026675;28;20033;-65
2024/02/11 03:42:19;;;;;;;24.30;14.20;;;;;;;-145.63;49.80;38797.41;5025606;28;20042;-65
2024/02/11 03:44:45;;;;;;;19.10;13.95;;;;;;;-145.63;50.16;38760.25;5017491;28;20025;-66
2024/02/11 03:47:11;;;;;;;21.67;14.27;;;;;;;-145.63;50.15;38777.84;5033576;28;20030;-67
2024/02/11 03:49:36;;;;;;;20.08;14.50;;;;;;;-145.63;50.04;38793.50;5017953;28;20025;-66
2024/02/11 03:52:03;;;;;;;23.33;14.57;;;;;;;-145.63;50.05;38811.09;5032737;28;20041;-67
2024/02/11 03:54:28;;;;;;;22.13;14.50;;;;;;;-145.63;50.14;38781.75;5033055;28;20105;-66
2024/02/11 03:56:54;;;;;;;23.23;14.52;;;;;;;-145.63;50.23;38773.94;5031570;28;20231;-66
2024/02/11 03:59:20;;;;;;;21.95;14.80;;;;;;;-145.63;50.15;38781.75;5032129;28;20030;-66
2024/02/11 04:01:46;;;;;;;23.45;14.60;;;;;;;-145.63;50.14;38766.13;5032649;28;20036;-65
2024/02/11 04:04:13;;;;;;;25.25;14.93;;;;;;;-145.63;50.13;38781.75;5032611;28;20022;-66
2024/02/11 04:06:39;;;;;;;22.10;13.20;;;;;;;-145.63;50.11;38818.91;5031481;28;20026;-65
2024/02/11 04:09:08;;;;;;;23.67;14.18;;;;;;;-145.63;50.99;38777.84;5032763;28;20034;-66
2024/02/11 04:11:35;;;;;;;20.88;13.75;;;;;;;-145.63;50.89;38748.50;5032401;28;20083;-65
2024/02/11 04:14:00;;;;;;;23.15;13.95;;;;;;;-145.63;50.49;38766.13;5033206;28;20032;-66
2024/02/11 04:16:28;;;;;;;23.10;14.88;;;;;;;-145.63;50.49;38764.16;5032708;28;20034;-67
2024/02/11 04:18:54;;;;;;;22.77;13.93;;;;;;;-145.63;49.94;38758.28;5031932;28;20045;-66
2024/02/11 04:21:22;;;;;;;20.75;14.07;;;;;;;-145.63;50.27;38770.03;5033189;28;20056;-66
2024/02/11 04:23:48;;;;;;;24.20;15.25;;;;;;;-145.63;50.70;38781.75;5036903;28;20036;-65
2024/02/11 04:26:15;;;;;;;23.45;15.63;;;;;;;-145.63;50.53;38785.66;5045731;28;20079;-66
2024/02/11 04:28:41;;;;;;;25.02;14.68;;;;;;;-145.63;50.35;38801.31;5032872;28;20084;-66
2024/02/11 04:31:11;;;;;;;23.77;16.33;;;;;;;-145.63;50.38;38773.94;5032280;28;20113;-66
2024/02/11 04:33:41;;;;;;;22.67;15.27;;;;;;;-145.63;50.17;38797.41;5032438;28;20048;-66
2024/02/11 04:36:14;;;;;;;24.15;16.27;;;;;;;-145.63;50.29;38766.13;5031224;28;20382;-66
2024/02/11 04:38:39;;;;;;;25.98;16.17;;;;;;;-145.63;50.80;38801.31;5031954;28;20059;-66
2024/02/11 04:41:05;;;;;;;24.80;16.05;;;;;;;-145.63;50.40;38766.13;5032330;28;20451;-66
2024/02/11 04:43:34;;;;;;;25.58;16.75;;;;;;;-145.63;50.63;38803.28;5032332;28;20037;-64
2024/02/11 04:46:04;;;;;;;26.98;15.95;;;;;;;-145.63;49.97;38766.13;5032562;28;20044;-67
2024/02/11 04:48:32;;;;;;;24.90;15.82;;;;;;;-145.63;50.48;38775.91;5031962;28;20037;-65
2024/02/11 04:50:59;;;;;;;26.13;15.63;;;;;;;-145.63;50.59;38771.97;5031778;28;20486;-66
2024/02/11 04:53:29;;;;;;;25.25;15.93;;;;;;;-145.63;50.52;38783.72;5031946;28;20025;-65
2024/02/11 04:55:57;;;;;;;25.65;15.43;;;;;;;-145.63;50.24;38797.41;5034286;28;20053;-65
2024/02/11 04:58:26;;;;;;;22.63;14.68;;;;;;;-145.63;50.26;38805.22;5034309;28;20125;-66
2024/02/11 05:00:53;;;;;;;23.60;14.68;;;;;;;-145.63;50.61;38781.75;5035853;28;20040;-66
2024/02/11 05:03:20;;;;;;;23.88;14.57;;;;;;;-145.63;49.95;38768.06;5034784;28;20033;-65
2024/02/11 05:05:49;;;;;;;20.15;14.07;;;;;;;-145.63;50.16;38791.53;5035700;28;20062;-66
2024/02/11 05:08:16;;;;;;;23.13;14.45;;;;;;;-145.63;50.55;38734.81;5035166;28;20065;-64
2024/02/11 05:10:44;;;;;;;23.13;14.95;;;;;;;-145.63;50.29;38762.22;5035399;28;20036;-64
2024/02/11 05:13:12;;;;;;;26.08;14.35;;;;;;;-145.63;51.02;38609.69;5036757;28;20034;-64
2024/02/11 05:15:40;;;;;;;19.88;13.30;;;;;;;-145.63;50.53;38766.13;5035226;28;20061;-64
2024/02/11 05:18:09;;;;;;;22.90;15.23;;;;;;;-145.63;50.13;38742.66;5035296;28;20066;-63
2024/02/11 05:20:36;;;;;;;22.02;14.70;;;;;;;-145.63;50.32;38746.56;5034527;28;20038;-64
2024/02/11 05:23:05;;;;;;;19.50;13.93;;;;;;;-145.63;49.97;38762.22;5034240;28;20038;-64
2024/02/11 05:25:31;;;;;;;22.73;14.98;;;;;;;-145.63;50.71;38742.66;5033219;28;20107;-65
2024/02/11 05:27:59;;;;;;;24.08;14.55;;;;;;;-145.63;50.62;38754.38;5031251;28;20104;-65
2024/02/11 05:30:33;;;;;;;24.23;14.18;;;;;;;-145.63;50.38;38719.19;5034870;28;20491;-64
2024/02/11 05:33:00;;;;;;;22.45;14.32;;;;;;;-145.63;50.01;38744.59;5030591;28;20041;-65
2024/02/11 05:35:29;;;;;;;21.73;13.82;;;;;;;-145.63;50.01;38713.31;5034997;28;20037;-66
2024/02/11 05:37:58;;;;;;;23.10;14.35;;;;;;;-145.63;50.34;38725.06;5049041;28;20128;-67
2024/02/11 05:40:26;;;;;;;20.38;14.15;;;;;;;-145.63;50.24;38711.38;5037705;28;20035;-65
2024/02/11 05:42:53;;;;;;;22.50;14.45;;;;;;;-145.63;50.48;38717.22;5034718;28;20124;-65
2024/02/11 05:45:23;;;;;;;20.95;13.90;;;;;;;-145.63;50.55;38715.28;5034150;28;20030;-66
2024/02/11 05:47:49;;;;;;;21.23;13.60;;;;;;;-145.63;50.15;38707.44;5034255;28;20033;-65
2024/02/11 05:50:16;;;;;;;24.73;13.80;;;;;;;-145.63;50.50;38744.59;5033766;28;20371;-66
2024/02/11 05:52:42;;;;;;;21.73;13.90;;;;;;;-145.63;50.11;38713.31;5034212;28;20025;-67
2024/02/11 05:55:09;;;;;;;21.90;14.65;;;;;;;-145.63;49.77;38693.75;5034315;28;20064;-66
2024/02/11 05:57:37;;;;;;;19.67;14.45;;;;;;;-145.63;50.23;38715.28;5034744;28;20029;-70
2024/02/11 06:00:11;;;;;;;19.42;12.65;;;;;;;-145.63;49.91;38695.72;5035170;28;20041;-65
2024/02/11 06:02:37;;;;;;;22.90;14.05;;;;;;;-145.63;49.89;38664.44;5033417;28;20084;-65
2024/02/11 06:05:12;;;;;;;21.27;13.93;;;;;;;-145.63;50.65;38699.63;5034166;28;20041;-65
2024/02/11 06:07:39;;;;;;;22.42;13.02;;;;;;;-145.63;50.32;38723.09;5041699;28;20034;-65
2024/02/11 06:10:06;;;;;;;21.25;13.40;;;;;;;-145.63;49.84;38707.44;5034292;28;20059;-65
2024/02/11 06:12:32;;;;;;;23.23;14.15;;;;;;;-145.63;49.56;38727.00;5034266;28;20037;-65
2024/02/11 06:14:58;;;;;;;22.60;13.45;;;;;;;-145.63;49.42;38699.63;5030181;28;20034;-66
2024/02/11 06:17:25;;;;;;;20.50;12.93;;;;;;;-145.63;49.34;38725.06;5022345;28;20421;-66
2024/02/11 06:19:54;;;;;;;21.77;13.20;;;;;;;-145.63;48.98;38711.38;5034449;28;20117;-66
2024/02/11 06:22:21;;;;;;;24.08;13.82;;;;;;;-145.63;49.30;38723.09;5026073;28;20029;-67
2024/02/11 06:24:51;;;;;;;23.40;13.50;;;;;;;-145.63;49.16;38734.81;5045145;28;20087;-66
2024/02/11 06:27:17;;;;;;;18.35;12.30;;;;;;;-145.63;49.15;38699.63;5045788;28;20128;-67
2024/02/11 06:29:43;;;;;;;19.65;12.25;;;;;;;-145.63;49.26;38725.06;5034399;28;20057;-68
2024/02/11 06:32:09;;;;;;;20.25;11.65;;;;;;;-145.63;49.56;38725.06;5034439;28;20135;-67
2024/02/11 06:34:35;;;;;;;19.52;12.35;;;;;;;-145.63;49.72;38746.56;5034022;28;20034;-66
2024/02/11 06:37:01;;;;;;;20.60;11.38;;;;;;;-145.63;49.27;38738.75;5024864;28;20478;-68
2024/02/11 06:39:27;;;;;;;18.98;12.00;;;;;;;-145.63;49.92;38674.22;5033871;28;20033;-65
2024/02/11 06:41:52;;;;;;;19.15;11.77;;;;;;;-145.63;49.83;38727.00;5033105;28;20037;-66
2024/02/11 06:44:26;;;;;;;17.80;10.80;;;;;;;-145.63;49.77;38697.69;5034503;28;20039;-67
2024/02/11 06:46:54;;;;;;;16.95;11.70;;;;;;;-145.63;50.31;38695.72;5033829;28;20121;-66
2024/02/11 06:49:24;;;;;;;22.95;12.88;;;;;;;-145.63;50.32;38691.81;5033758;28;20025;-67
2024/02/11 06:51:55;;;;;;;22.63;13.38;;;;;;;-145.63;49.86;38711.38;5034235;28;20057;-66
2024/02/11 06:54:21;;;;;;;22.85;13.23;;;;;;;-145.63;49.88;38736.78;5033986;28;20056;-67
2024/02/11 06:56:47;;;;;;;20.42;13.02;;;;;;;-145.63;49.36;38719.19;5023413;28;20041;-67
2024/02/11 06:59:14;;;;;;;20.63;12.25;;;;;;;-145.63;49.53;38695.72;5031915;28;20033;-67
2024/02/11 07:01:43;;;;;;;18.08;11.85;;;;;;;-145.63;49.18;38719.19;5025577;28;20034;-70
2024/02/11 07:04:12;;;;;;;18.30;11.70;;;;;;;-145.63;49.02;38723.09;5019400;28;20166;-67
2024/02/11 07:06:44;;;;;;;19.30;11.45;;;;;;;-145.63;48.67;38738.75;5022927;28;20048;-67
2024/02/11 07:09:13;;;;;;;15.35;11.55;;;;;;;-145.63;48.87;38744.59;5033109;28;20029;-67
2024/02/11 07:11:40;;;;;;;18.05;11.40;;;;;;;-145.63;48.96;38746.56;5032203;28;20029;-65
2024/02/11 07:14:07;;;;;;;20.17;11.82;;;;;;;-145.63;49.11;38764.16;5032303;28;20033;-67
2024/02/11 07:16:38;;;;;;;17.10;11.05;;;;;;;-145.63;48.83;38754.38;5032831;28;20065;-68
2024/02/11 07:19:07;;;;;;;21.15;11.82;;;;;;;-145.63;49.16;38713.31;5051074;28;20040;-64
2024/02/11 07:21:36;;;;;;;19.10;11.70;;;;;;;-145.63;48.76;38746.56;5052892;28;20041;-65
2024/02/11 07:24:09;;;;;;;16.88;11.15;;;;;;;-145.63;48.59;38736.78;5034686;28;20116;-66
2024/02/11 07:26:36;;;;;;;16.50;10.35;;;;;;;-145.63;48.86;38740.69;5024384;28;20045;-66
2024/02/11 07:29:03;;;;;;;20.90;10.68;;;;;;;-145.63;48.73;38715.28;5030450;28;20037;-64
2024/02/11 07:31:33;;;;;;;20.45;10.90;;;;;;;-145.63;48.74;38707.44;5016843;28;20045;-68
2024/02/11 07:34:01;;;;;;;18.05;11.45;;;;;;;-145.63;48.86;38809.13;5030669;28;20091;-66
2024/02/11 07:36:27;;;;;;;16.02;10.68;;;;;;;-145.63;48.57;38762.22;5032678;28;20039;-65
2024/02/11 07:38:54;;;;;;;17.75;11.20;;;;;;;-145.63;48.50;38762.22;5032836;28;20470;-69
2024/02/11 07:41:21;;;;;;;19.13;11.65;;;;;;;-145.63;48.88;38633.16;5033134;28;20039;-65
2024/02/11 07:43:47;;;;;;;20.92;11.98;;;;;;;-145.63;47.91;38701.59;5037346;28;20033;-65
2024/02/11 07:46:14;;;;;;;15.43;10.63;;;;;;;-145.63;47.16;38738.75;5032869;28;20056;-66
2024/02/11 07:48:45;;;;;;;18.55;11.15;;;;;;;-145.63;46.69;38502.13;5032599;28;20025;-66
2024/02/11 07:51:14;;;;;;;17.40;11.00;;;;;;;-145.63;46.15;38668.34;5032792;28;20067;-68
2024/02/11 07:53:41;;;;;;;16.23;10.95;;;;;;;-145.63;45.93;38775.91;5026557;28;20083;-65
2024/02/11 07:56:19;;;;;;;18.25;11.10;;;;;;;-145.63;46.44;38846.28;5032572;28;20041;-66
2024/02/11 07:58:45;;;;;;;18.00;10.95;;;;;;;-145.63;47.00;38779.81;5034035;28;20057;-65
2024/02/11 08:01:10;;;;;;;16.13;10.77;;;;;;;-145.63;47.32;38828.69;5034034;28;20076;-67
2024/02/11 08:03:37;;;;;;;16.45;10.55;;;;;;;-145.63;47.55;38836.50;5033390;28;20101;-67
2024/02/11 08:06:09;;;;;;;17.80;10.73;;;;;;;-145.63;47.59;38828.69;5023361;28;20117;-67
2024/02/11 08:08:38;;;;;;;17.17;10.77;;;;;;;-145.63;48.13;38842.38;5025025;28;20049;-67
2024/02/11 08:11:05;;;;;;;18.27;10.48;;;;;;;-145.63;47.76;38836.50;5032365;28;20069;-65
2024/02/11 08:13:32;;;;;;;19.30;11.68;;;;;;;-145.63;47.42;38850.19;5027167;28;20021;-66
2024/02/11 08:16:03;;;;;;;16.77;10.27;;;;;;;-145.63;47.74;38824.78;5031204;28;20038;-65
2024/02/11 08:18:29;;;;;;;15.98;11.00;;;;;;;-145.63;47.89;38840.44;5032297;28;20029;-65
2024/02/11 08:20:56;;;;;;;17.38;10.18;;;;;;;-145.63;48.01;38848.25;5032942;28;20467;-67
2024/02/11 08:23:24;;;;;;;18.40;11.23;;;;;;;-145.63;47.59;38859.97;5032725;28;20040;-67
2024/02/11 08:25:50;;;;;;;15.68;10.10;;;;;;;-145.63;47.76;38613.59;5051565;28;20609;-67
2024/02/11 08:28:16;;;;;;;17.23;10.38;;;;;;;-145.63;47.93;38807.19;5043149;28;20028;-68
2024/02/11 08:30:43;;;;;;;19.88;10.57;;;;;;;-145.63;48.53;38840.44;5023935;28;20458;-66
2024/02/11 08:33:09;;;;;;;16.10;10.20;;;;;;;-145.63;48.12;38867.81;5040373;28;20041;-66
2024/02/11 08:35:46;;;;;;;16.80;9.95;;;;;;;-145.63;48.41;38842.38;5056357;28;20037;-67
2024/02/11 08:38:15;;;;;;;14.32;9.45;;;;;;;-145.63;47.77;38861.94;5045198;28;20018;-68
2024/02/11 08:40:41;;;;;;;15.32;9.25;;;;;;;-145.63;48.26;38883.44;5025551;28;20600;-66
2024/02/11 08:43:07;;;;;;;16.85;9.82;;;;;;;-145.63;48.06;38852.16;5031982;28;20029;-66
2024/02/11 08:45:33;;;;;;;15.07;9.27;;;;;;;-145.63;48.20;38904.97;5036155;28;20435;-67
2024/02/11 08:47:58;;;;;;;13.73;8.98;;;;;;;-145.63;48.12;38871.72;5035835;28;20036;-67
2024/02/11 08:50:27;;;;;;;14.57;8.98;;;;;;;-145.63;48.20;38875.63;5034617;28;20418;-68
2024/02/11 08:52:53;;;;;;;14.15;9.63;;;;;;;-145.63;48.67;38889.31;5040046;28;20036;-66
2024/02/11 08:55:19;;;;;;;15.30;8.98;;;;;;;-145.63;48.34;38891.28;5020523;28;20086;-67
2024/02/11 08:57:47;;;;;;;12.30;8.02;;;;;;;-145.63;48.62;38895.19;5032752;28;20033;-67
2024/02/11 09:00:18;;;;;;;15.77;8.85;;;;;;;-145.63;48.16;38859.97;5035692;28;20095;-69
2024/02/11 09:02:44;;;;;;;13.27;8.63;;;;;;;-145.63;48.89;38879.53;5024375;28;20414;-67
2024/02/11 09:05:11;;;;;;;13.20;8.40;;;;;;;-145.63;48.55;38934.28;5028853;28;20076;-66
2024/02/11 09:07:42;;;;;;;13.13;8.70;;;;;;;-145.63;48.29;38906.91;5035359;28;20033;-66
2024/02/11 09:10:08;;;;;;;;;;;;;;;-145.63;48.23;38879.53;5028631;28;20064;-65
2024/02/11 09:12:34;;;;;;;13.73;8.45;;;;;;;-145.63;48.15;38914.72;5031544;28;20011;-66
2024/02/11 09:15:00;;;;;;;12.57;8.13;;;;;;;-145.63;47.95;38910.81;5036458;28;20521;-66
2024/02/11 09:17:29;;;;;;;12.63;8.48;;;;;;;-145.63;48.18;38910.81;5035647;28;20098;-66
2024/02/11 09:19:55;;;;;;;14.63;8.82;;;;;;;-145.63;47.85;38901.03;5056155;28;20064;-67
2024/02/11 09:22:21;;;;;;;12.68;8.15;;;;;;;-145.63;48.12;38901.03;5051235;28;20042;-66
2024/02/11 09:24:46;;;;;;;16.30;9.00;;;;;;;-145.63;47.65;38773.94;5049064;28;20045;-66
2024/02/11 09:27:12;;;;;;;13.40;7.82;;;;;;;-145.63;46.63;38805.22;5040972;28;20042;-65
2024/02/11 09:29:38;;;;;;;12.18;7.28;;;;;;;-145.63;46.53;38779.81;5028108;28;20025;-66
2024/02/11 09:32:04;;;;;;;15.63;9.02;;;;;;;-145.63;46.35;38801.31;5026567;28;20042;-63
2024/02/11 09:34:30;;;;;;;11.57;7.97;;;;;;;-145.63;46.48;38875.63;5033332;28;20045;-65
2024/02/11 09:36:55;;;;;;;11.35;7.80;;;;;;;-145.63;46.89;38906.91;5034923;28;20060;-66
2024/02/11 09:39:21;;;;;;;13.43;7.95;;;;;;;-145.63;47.09;38891.28;5035317;28;20025;-64
2024/02/11 09:41:47;;;;;;;13.57;8.02;;;;;;;-145.63;46.59;38883.44;5034048;28;20036;-64
2024/02/11 09:44:17;;;;;;;13.20;7.85;;;;;;;-145.63;46.44;38910.81;5028918;28;20487;-64
2024/02/11 09:46:46;;;;;;;11.55;7.68;;;;;;;-145.63;46.43;38844.34;5027473;28;20034;-67
2024/02/11 09:49:17;;;;;;;12.32;7.60;;;;;;;-145.63;46.88;38863.88;5029914;28;20041;-66
2024/02/11 09:51:50;;;;;;;12.40;7.78;;;;;;;-145.63;46.02;38842.38;5034847;28;20029;-65
2024/02/11 09:54:18;;;;;;;12.40;7.82;;;;;;;-145.63;46.61;38893.22;5026238;28;20124;-66
2024/02/11 09:56:44;;;;;;;12.82;7.90;;;;;;;-145.63;46.03;38953.84;5026655;28;20463;-64
2024/02/11 09:59:10;;;;;;;12.48;7.95;;;;;;;-145.63;45.94;38926.47;5033907;28;20068;-65
2024/02/11 10:01:41;;;;;;;11.48;7.78;;;;;;;-145.63;46.18;38899.09;5016016;28;20403;-65
2024/02/11 10:04:08;;;;;;;11.32;6.70;;;;;;;-145.63;45.98;38934.28;5028128;28;20025;-65
2024/02/11 10:06:36;;;;;;;11.52;7.85;;;;;;;-145.63;45.93;38957.75;5029806;28;20043;-66
2024/02/11 10:09:05;;;;;;;11.40;7.55;;;;;;;-145.63;45.65;38938.19;5031574;28;20061;-65
2024/02/11 10:11:33;;;;;;;11.13;7.00;;;;;;;-145.63;46.14;38496.28;5013323;28;20033;-65
2024/02/11 10:13:59;;;;;;;12.68;7.13;;;;;;;-145.63;45.85;38947.97;5044230;28;20030;-64
2024/02/11 10:16:30;;;;;;;14.48;9.07;;;;;;;-145.63;45.83;38949.94;5030570;28;20037;-65
2024/02/11 10:18:59;;;;;;;11.50;6.97;;;;;;;-145.63;45.44;38850.19;5033321;28;20029;-65
2024/02/11 10:21:25;;;;;;;11.65;7.60;;;;;;;-145.63;45.75;38959.72;5022219;28;20059;-67
2024/02/11 10:23:54;;;;;;;13.00;7.10;;;;;;;-145.63;45.92;38991.00;5018668;28;20048;-66
2024/02/11 10:26:20;;;;;;;12.70;7.78;;;;;;;-145.63;45.62;38936.25;5025669;28;20030;-66
2024/02/11 10:29:05;;;;;;;15.15;8.68;;;;;;;-145.63;46.33;38914.72;5032885;28;20497;-62
2024/02/11 10:31:30;;;;;;;10.98;6.88;;;;;;;-145.63;46.19;38918.66;5027980;28;20081;-64
2024/02/11 10:33:59;;;;;;;11.85;7.13;;;;;;;-145.63;46.15;38938.19;5024584;28;20459;-64
2024/02/11 10:36:26;;;;;;;9.70;7.30;;;;;;;-145.63;46.06;38957.75;5028148;28;20065;-65
2024/02/11 10:38:56;;;;;;;12.07;7.25;;;;;;;-145.63;46.17;38961.66;5019223;28;20044;-65
2024/02/11 10:41:26;;;;;;;12.32;7.20;;;;;;;-145.63;46.39;38949.94;5032009;28;20030;-66
2024/02/11 10:43:52;;;;;;;11.85;7.22;;;;;;;-145.63;45.87;38953.84;5031468;28;20107;-64
2024/02/11 10:46:20;;;;;;;11.75;7.18;;;;;;;-145.63;46.11;38961.66;5020814;28;20033;-65
2024/02/11 10:48:46;;;;;;;12.55;7.95;;;;;;;-145.63;46.34;38965.56;5022343;28;20121;-67
2024/02/11 10:51:23;;;;;;;13.30;7.13;;;;;;;-145.63;46.19;38983.19;5033422;28;20036;-65
2024/02/11 10:53:56;;;;;;;10.23;7.10;;;;;;;-145.63;45.96;38977.31;5023917;28;20129;-66
2024/02/11 10:56:23;;;;;;;10.50;6.53;;;;;;;-145.63;46.58;38942.13;5020696;28;20407;-68
2024/02/11 10:59:26;;;;;;;13.00;7.38;;;;;;;-145.63;46.42;38946.03;5030599;28;20045;-66
2024/02/11 11:01:56;;;;;;;11.30;7.18;;;;;;;-145.63;46.84;38930.38;5033799;28;20071;-65
2024/02/11 11:04:25;;;;;;;11.77;7.03;;;;;;;-145.63;47.00;38938.19;5028670;28;20037;-65
2024/02/11 11:06:52;;;;;;;10.30;6.97;;;;;;;-145.63;46.62;38963.63;5033394;28;20046;-66